Список аэропортов
Фактическая погода:

25 июня, 01:00
Температура: +10°C (+10.0*)
Ветер: восточный 1 м/с
Давление: *760 мм
Без существ. явл.
Время (МСК)Темп. СВетерВлажностьДавлениеОблачностьОсадки
21:00+18ЮЗ, 2 м/с63%1013 гПамалооблачно
22:00+17ЮЗ, 2 м/с75%1014 гПас прояснениями
23:00+15ЮЗ, 2 м/с84%1014 гПамалооблачно
25 июня
00:00+14ЮЗ, 2 м/с88%1014 гПаясно
01:00+14ЮЗ, 2 м/с94%1014 гПаясно
02:00+13ЮЗ, 2 м/с97%1014 гПаясно
03:00+13ЮЗ, 2 м/с96%1014 гПаясно
04:00+14ЮЗ, 3 м/с88%1014 гПас прояснениями
05:00+16ЮЗ, 3 м/с75%1014 гПамалооблачно
06:00+19З, 4 м/с62%1014 гПаясно
07:00+22З, 4 м/с51%1013 гПас прояснениями
08:00+25З, 5 м/с41%1013 гПас прояснениями
09:00+26СЗ, 7 м/с34%1013 гПаясно
10:00+27СЗ, 7 м/с30%1013 гПаясно
11:00+28СЗ, 7 м/с28%1013 гПас прояснениями
12:00+28СЗ, 7 м/с28%1013 гПамалооблачно
13:00+28З, 7 м/с29%1013 гПас прояснениями
14:00+28З, 8 м/с29%1013 гПамалооблачно
15:00+28З, 8 м/с31%1013 гПамалооблачно
16:00+27З, 7 м/с35%1013 гПас прояснениями
17:00+26З, 6 м/с37%1013 гПамалооблачно
18:00+25З, 4 м/с40%1013 гПаясно
19:00+24З, 4 м/с44%1014 гПаясно
20:00+22З, 2 м/с52%1014 гПаясно
21:00+20З, 1 м/с63%1014 гПаоблачно
22:00+19З, 2 м/с71%1014 гПамалооблачно
23:00+18З, 2 м/с74%1014 гПаоблачно
26 июня
00:00+17СЗ, 2 м/с78%1014 гПаоблачно
01:00+17СЗ, 2 м/с83%1014 гПаоблачно
02:00+15СЗ, 2 м/с88%1015 гПаоблачно
03:00+14СЗ, 2 м/с90%1016 гПаоблачно
04:00+15СЗ, 3 м/с76%1016 гПас прояснениями
05:00+17С, 3 м/с61%1016 гПас прояснениями
06:00+20С, 4 м/с51%1017 гПаоблачно
07:00+21С, 5 м/с45%1017 гПас прояснениями
08:00+22С, 5 м/с40%1017 гПаясно
09:00+23С, 5 м/с38%1017 гПамалооблачно
10:00+24С, 4 м/с36%1017 гПамалооблачно
11:00+25С, 5 м/с33%1016 гПамалооблачно
12:00+26СЗ, 5 м/с33%1016 гПамалооблачно
13:00+27СЗ, 5 м/с32%1016 гПамалооблачно
14:00+27СЗ, 5 м/с32%1015 гПаясно
15:00+27СЗ, 5 м/с32%1015 гПаясно
16:00+27СЗ, 5 м/с34%1015 гПаясно
17:00+26СЗ, 5 м/с35%1015 гПаясно
18:00+25СЗ, 4 м/с38%1015 гПаясно
19:00+24СЗ, 3 м/с42%1015 гПаясно
20:00+21СЗ, 2 м/с54%1015 гПаясно
21:00+20З, 2 м/с65%1015 гПас прояснениями